createdAt,value
2017-06-02T00:02:47.306Z,0
2017-06-02T00:02:57.394Z,0
2017-06-02T00:03:57.027Z,0
2017-06-02T00:04:57.272Z,0
2017-06-02T00:05:56.922Z,0
2017-06-02T00:06:57.143Z,0
2017-06-02T00:07:57.081Z,0
2017-06-02T00:08:56.718Z,0
2017-06-02T00:09:56.971Z,0
2017-06-02T00:10:56.933Z,0
2017-06-02T00:11:56.834Z,0
2017-06-02T00:12:56.771Z,0
2017-06-02T00:13:56.115Z,0
2017-06-02T00:14:56.642Z,0
2017-06-02T00:15:55.983Z,0
2017-06-02T00:16:56.519Z,0
2017-06-02T00:17:56.458Z,0
2017-06-02T00:18:56.098Z,0
2017-06-02T00:19:55.725Z,0
2017-06-02T00:20:56.271Z,0
2017-06-02T00:21:55.903Z,0
2017-06-02T00:22:55.840Z,0
2017-06-02T00:23:56.078Z,0
2017-06-02T00:24:56.018Z,0
2017-06-02T00:25:55.957Z,0
2017-06-02T00:26:55.898Z,0
2017-06-02T00:27:55.604Z,0
2017-06-02T00:28:55.772Z,0
2017-06-02T00:29:55.708Z,0
2017-06-02T00:30:55.344Z,0
2017-06-02T00:31:55.292Z,0
2017-06-02T00:32:55.219Z,0
2017-06-02T00:33:55.154Z,0
2017-06-02T00:34:55.095Z,0
2017-06-02T00:35:55.332Z,0
2017-06-02T00:36:55.278Z,0
2017-06-02T00:37:55.212Z,0
2017-06-02T00:38:55.147Z,0
2017-06-02T00:39:54.779Z,0
2017-06-02T00:40:55.023Z,0
2017-06-02T00:41:54.656Z,0
2017-06-02T00:42:54.593Z,0
2017-06-02T00:43:54.834Z,0
2017-06-02T00:44:54.782Z,0
2017-06-02T00:45:54.705Z,0
2017-06-02T00:46:54.647Z,0
2017-06-02T00:47:54.617Z,0
2017-06-02T00:48:54.585Z,0
2017-06-02T00:49:54.460Z,0
2017-06-02T00:50:54.396Z,0
2017-06-02T00:51:54.335Z,0
2017-06-02T00:52:54.277Z,0
2017-06-02T00:53:53.913Z,0
2017-06-02T00:54:54.151Z,0
2017-06-02T00:55:53.782Z,0
2017-06-02T00:56:53.719Z,0
2017-06-02T00:57:53.960Z,0
2017-06-02T00:58:53.906Z,0
2017-06-02T00:59:53.535Z,0
2017-06-02T01:00:53.472Z,0
2017-06-02T01:01:53.713Z,0
2017-06-02T01:02:53.354Z,0
2017-06-02T01:03:53.584Z,0
2017-06-02T01:04:53.527Z,0
2017-06-02T01:05:53.459Z,0
2017-06-02T01:06:53.398Z,0
2017-06-02T01:07:53.335Z,0
2017-06-02T01:08:53.274Z,0
2017-06-02T01:09:52.914Z,0
2017-06-02T01:10:53.181Z,0
2017-06-02T01:11:52.782Z,0
2017-06-02T01:12:52.720Z,0
2017-06-02T01:13:52.660Z,0
2017-06-02T01:14:52.636Z,0
2017-06-02T01:15:52.534Z,0
2017-06-02T01:16:52.474Z,0
2017-06-02T01:17:52.104Z,0
2017-06-02T01:18:52.650Z,0
2017-06-02T01:19:52.585Z,0
2017-06-02T01:20:52.527Z,0
2017-06-02T01:21:52.477Z,0
2017-06-02T01:22:52.405Z,0
2017-06-02T01:23:52.339Z,0
2017-06-02T01:24:52.276Z,0
2017-06-02T01:25:51.910Z,0
2017-06-02T01:26:52.152Z,0
2017-06-02T01:27:52.092Z,0
2017-06-02T01:28:52.027Z,0
2017-06-02T01:29:51.958Z,0
2017-06-02T01:30:51.600Z,0
2017-06-02T01:31:51.834Z,0
2017-06-02T01:32:51.476Z,0
2017-06-02T01:33:51.715Z,0
2017-06-02T01:34:52.857Z,0
2017-06-02T01:35:51.588Z,0
2017-06-02T01:36:51.528Z,0
2017-06-02T01:37:51.177Z,0
2017-06-02T01:38:51.404Z,0
2017-06-02T01:39:51.338Z,0
2017-06-02T01:40:51.277Z,0
2017-06-02T01:41:51.211Z,0
2017-06-02T01:42:51.152Z,0
2017-06-02T01:43:51.087Z,0
2017-06-02T01:44:51.026Z,0
2017-06-02T01:45:50.960Z,0
2017-06-02T01:46:50.897Z,0
2017-06-02T01:47:50.564Z,0
2017-06-02T01:48:50.777Z,0
2017-06-02T01:49:50.713Z,0
2017-06-02T01:50:50.646Z,0
2017-06-02T01:51:50.593Z,0
2017-06-02T01:52:50.527Z,0
2017-06-02T01:53:50.466Z,0
2017-06-02T01:54:50.401Z,0
2017-06-02T01:55:50.348Z,0
2017-06-02T01:56:50.279Z,0
2017-06-02T01:57:50.214Z,0
2017-06-02T01:58:50.172Z,0
2017-06-02T01:59:50.086Z,0
2017-06-02T02:00:49.881Z,0
2017-06-02T02:01:49.682Z,0
2017-06-02T02:02:49.604Z,0
2017-06-02T02:03:49.844Z,0
2017-06-02T02:04:49.781Z,0
2017-06-02T02:05:49.413Z,0
2017-06-02T02:06:49.651Z,0
2017-06-02T02:07:49.590Z,0
2017-06-02T02:08:49.525Z,0
2017-06-02T02:09:49.462Z,0
2017-06-02T02:10:49.404Z,0
2017-06-02T02:11:49.348Z,0
2017-06-02T02:12:49.286Z,0
2017-06-02T02:13:49.214Z,0
2017-06-02T02:14:49.160Z,0
2017-06-02T02:15:49.093Z,0
2017-06-02T02:16:49.035Z,0
2017-06-02T02:17:48.661Z,0
2017-06-02T02:18:48.904Z,0
2017-06-02T02:19:48.847Z,0
2017-06-02T02:20:48.777Z,0
2017-06-02T02:21:48.734Z,0
2017-06-02T02:22:48.652Z,0
2017-06-02T02:23:48.587Z,0
2017-06-02T02:24:48.539Z,0
2017-06-02T02:25:48.486Z,0
2017-06-02T02:26:48.412Z,0
2017-06-02T02:27:48.036Z,0
2017-06-02T02:28:48.276Z,0
2017-06-02T02:29:48.210Z,0
2017-06-02T02:30:48.153Z,0
2017-06-02T02:31:48.108Z,0
2017-06-02T02:32:48.032Z,0
2017-06-02T02:33:47.966Z,0
2017-06-02T02:34:47.906Z,0
2017-06-02T02:35:47.542Z,0
2017-06-02T02:36:47.783Z,0
2017-06-02T02:37:47.719Z,0
2017-06-02T02:38:47.650Z,0
2017-06-02T02:39:47.589Z,0
2017-06-02T02:40:47.532Z,0
2017-06-02T02:41:47.481Z,0
2017-06-02T02:42:47.100Z,0
2017-06-02T02:43:47.339Z,0
2017-06-02T02:44:47.276Z,0
2017-06-02T02:45:46.927Z,0
2017-06-02T02:46:47.154Z,0
2017-06-02T02:47:46.795Z,4
2017-06-02T02:48:46.723Z,4
2017-06-02T02:49:46.962Z,4
2017-06-02T02:50:46.905Z,4
2017-06-02T02:51:46.838Z,4
2017-06-02T02:52:46.793Z,4
2017-06-02T02:53:46.723Z,4
2017-06-02T02:54:46.653Z,4
2017-06-02T02:55:46.588Z,4
2017-06-02T02:56:46.526Z,4
2017-06-02T02:57:46.466Z,4
2017-06-02T02:58:46.118Z,4
2017-06-02T02:59:46.339Z,4
2017-06-02T03:00:46.278Z,4
2017-06-02T03:01:46.218Z,4
2017-06-02T03:02:46.161Z,4
2017-06-02T03:03:46.087Z,0
2017-06-02T03:04:46.030Z,4
2017-06-02T03:05:45.984Z,4
2017-06-02T03:06:45.903Z,4
2017-06-02T03:07:45.238Z,4
2017-06-02T03:08:45.796Z,4
2017-06-02T03:09:45.717Z,4
2017-06-02T03:10:45.359Z,4
2017-06-02T03:11:45.284Z,4
2017-06-02T03:12:45.531Z,4
2017-06-02T03:13:45.163Z,8
2017-06-02T03:14:45.100Z,8
2017-06-02T03:15:45.041Z,4
2017-06-02T03:16:45.293Z,4
2017-06-02T03:17:45.217Z,4
2017-06-02T03:18:45.155Z,4
2017-06-02T03:19:45.091Z,8
2017-06-02T03:20:45.033Z,8
2017-06-02T03:21:44.967Z,8
2017-06-02T03:22:44.902Z,8
2017-06-02T03:23:44.839Z,8
2017-06-02T03:24:44.778Z,8
2017-06-02T03:25:44.734Z,8
2017-06-02T03:26:44.656Z,8
2017-06-02T03:27:44.298Z,12
2017-06-02T03:28:44.226Z,12
2017-06-02T03:29:44.162Z,8
2017-06-02T03:30:44.406Z,12
2017-06-02T03:31:44.359Z,12
2017-06-02T03:32:44.280Z,12
2017-06-02T03:33:43.611Z,12
2017-06-02T03:34:44.153Z,16
2017-06-02T03:35:43.793Z,16
2017-06-02T03:36:43.732Z,16
2017-06-02T03:37:43.964Z,16
2017-06-02T03:38:43.915Z,16
2017-06-02T03:39:43.840Z,20
2017-06-02T03:40:43.777Z,20
2017-06-02T03:41:43.731Z,16
2017-06-02T03:42:43.656Z,20
2017-06-02T03:43:43.589Z,24
2017-06-02T03:44:43.527Z,20
2017-06-02T03:45:43.469Z,24
2017-06-02T03:46:44.010Z,28
2017-06-02T03:47:43.355Z,24
2017-06-02T03:48:42.973Z,28
2017-06-02T03:49:43.212Z,28
2017-06-02T03:50:43.157Z,28
2017-06-02T03:51:43.090Z,28
2017-06-02T03:52:43.032Z,28
2017-06-02T03:53:42.966Z,28
2017-06-02T03:54:42.946Z,32
2017-06-02T03:55:43.050Z,32
2017-06-02T03:56:42.498Z,28
2017-06-02T03:57:42.714Z,28
2017-06-02T03:58:42.659Z,32
2017-06-02T03:59:42.299Z,32
2017-06-02T04:00:42.246Z,32
2017-06-02T04:01:42.474Z,36
2017-06-02T04:02:42.413Z,36
2017-06-02T04:03:42.051Z,36
2017-06-02T04:04:42.297Z,36
2017-06-02T04:05:41.968Z,32
2017-06-02T04:06:42.151Z,36
2017-06-02T04:07:42.104Z,36
2017-06-02T04:08:42.037Z,36
2017-06-02T04:09:41.689Z,36
2017-06-02T04:10:41.921Z,36
2017-06-02T04:11:41.555Z,36
2017-06-02T04:12:41.797Z,36
2017-06-02T04:13:41.712Z,40
2017-06-02T04:14:41.362Z,40
2017-06-02T04:15:41.303Z,40
2017-06-02T04:16:41.524Z,40
2017-06-02T04:17:41.474Z,40
2017-06-02T04:18:41.096Z,40
2017-06-02T04:19:41.039Z,40
2017-06-02T04:20:41.275Z,40
2017-06-02T04:21:40.917Z,44
2017-06-02T04:22:40.863Z,44
2017-06-02T04:23:41.091Z,44
2017-06-02T04:24:40.724Z,44
2017-06-02T04:25:40.358Z,44
2017-06-02T04:26:40.596Z,44
2017-06-02T04:27:40.835Z,48
2017-06-02T04:28:40.777Z,48
2017-06-02T04:29:40.417Z,44
2017-06-02T04:30:40.649Z,48
2017-06-02T04:31:40.588Z,48
2017-06-02T04:32:40.528Z,48
2017-06-02T04:33:40.463Z,48
2017-06-02T04:34:40.403Z,48
2017-06-02T04:35:40.340Z,48
2017-06-02T04:36:40.277Z,48
2017-06-02T04:37:39.912Z,48
2017-06-02T04:38:40.150Z,52
2017-06-02T04:39:40.095Z,48
2017-06-02T04:40:40.136Z,48
2017-06-02T04:41:39.975Z,48
2017-06-02T04:42:39.906Z,52
2017-06-02T04:43:39.530Z,52
2017-06-02T04:44:39.175Z,52
2017-06-02T04:45:39.715Z,56
2017-06-02T04:46:39.347Z,56
2017-06-02T04:47:39.587Z,56
2017-06-02T04:48:39.227Z,56
2017-06-02T04:49:39.457Z,52
2017-06-02T04:50:39.398Z,52
2017-06-02T04:51:39.050Z,52
2017-06-02T04:52:39.271Z,52
2017-06-02T04:53:39.211Z,52
2017-06-02T04:54:39.149Z,60
2017-06-02T04:55:39.083Z,56
2017-06-02T04:56:39.024Z,56
2017-06-02T04:57:38.970Z,56
2017-06-02T04:58:38.899Z,56
2017-06-02T04:59:38.833Z,60
2017-06-02T05:00:38.781Z,60
2017-06-02T05:01:38.405Z,60
2017-06-02T05:02:38.341Z,60
2017-06-02T05:03:38.585Z,64
2017-06-02T05:04:38.520Z,60
2017-06-02T05:05:38.461Z,56
2017-06-02T05:06:38.405Z,60
2017-06-02T05:07:38.330Z,64
2017-06-02T05:08:37.961Z,64
2017-06-02T05:09:38.212Z,64
2017-06-02T05:10:38.145Z,64
2017-06-02T05:11:38.079Z,64
2017-06-02T05:12:38.015Z,64
2017-06-02T05:13:37.957Z,64
2017-06-02T05:14:37.595Z,60
2017-06-02T05:15:37.525Z,64
2017-06-02T05:16:37.160Z,68
2017-06-02T05:17:37.398Z,68
2017-06-02T05:18:37.337Z,64
2017-06-02T05:19:37.639Z,68
2017-06-02T05:20:37.536Z,68
2017-06-02T05:21:37.452Z,68
2017-06-02T05:22:37.106Z,64
2017-06-02T05:23:37.020Z,68
2017-06-02T05:24:37.264Z,68
2017-06-02T05:25:37.209Z,68
2017-06-02T05:26:37.145Z,68
2017-06-02T05:27:37.081Z,68
2017-06-02T05:28:37.020Z,68
2017-06-02T05:29:36.646Z,64
2017-06-02T05:30:36.290Z,68
2017-06-02T05:31:36.522Z,68
2017-06-02T05:32:36.758Z,68
2017-06-02T05:33:36.707Z,68
2017-06-02T05:34:36.633Z,72
2017-06-02T05:35:36.590Z,72
2017-06-02T05:36:36.210Z,68
2017-06-02T05:37:36.139Z,68
2017-06-02T05:38:36.385Z,68
2017-06-02T05:39:36.042Z,72
2017-06-02T05:40:36.258Z,72
2017-06-02T05:41:36.196Z,72
2017-06-02T05:42:35.826Z,72
2017-06-02T05:43:36.068Z,68
2017-06-02T05:44:36.001Z,72
2017-06-02T05:45:35.965Z,72
2017-06-02T05:46:35.577Z,68
2017-06-02T05:47:35.517Z,72
2017-06-02T05:48:35.751Z,68
2017-06-02T05:49:35.687Z,72
2017-06-02T05:50:35.624Z,72
2017-06-02T05:51:35.576Z,68
2017-06-02T05:52:35.199Z,72
2017-06-02T05:53:35.140Z,72
2017-06-02T05:54:35.376Z,72
2017-06-02T05:55:35.320Z,68
2017-06-02T05:56:34.947Z,68
2017-06-02T05:57:34.584Z,68
2017-06-02T05:58:34.823Z,68
2017-06-02T05:59:35.062Z,72
2017-06-02T06:00:35.000Z,72
2017-06-02T06:01:34.636Z,72
2017-06-02T06:02:34.890Z,72
2017-06-02T06:03:34.806Z,72
2017-06-02T06:04:34.743Z,64
2017-06-02T06:05:34.683Z,72
2017-06-02T06:06:34.625Z,72
2017-06-02T06:07:34.561Z,68
2017-06-02T06:08:34.501Z,68
2017-06-02T06:09:34.448Z,68
2017-06-02T06:10:34.373Z,68
2017-06-02T06:11:34.310Z,68
2017-06-02T06:12:34.248Z,72
2017-06-02T06:13:34.182Z,68
2017-06-02T06:14:33.818Z,72
2017-06-02T06:15:34.062Z,72
2017-06-02T06:16:34.005Z,72
2017-06-02T06:17:33.930Z,64
2017-06-02T06:18:33.862Z,68
2017-06-02T06:19:33.803Z,72
2017-06-02T06:20:33.738Z,68
2017-06-02T06:21:33.373Z,80
2017-06-02T06:22:33.609Z,76
2017-06-02T06:23:33.546Z,76
2017-06-02T06:24:33.486Z,84
2017-06-02T06:25:33.577Z,80
2017-06-02T06:26:33.372Z,84
2017-06-02T06:27:33.303Z,76
2017-06-02T06:28:32.935Z,76
2017-06-02T06:29:33.175Z,84
2017-06-02T06:30:32.811Z,84
2017-06-02T06:31:33.049Z,84
2017-06-02T06:32:32.683Z,80
2017-06-02T06:33:32.617Z,84
2017-06-02T06:34:32.559Z,84
2017-06-02T06:35:32.496Z,84
2017-06-02T06:36:32.433Z,84
2017-06-02T06:37:32.671Z,84
2017-06-02T06:38:32.310Z,84
2017-06-02T06:39:31.944Z,84
2017-06-02T06:40:32.483Z,88
2017-06-02T06:41:32.429Z,80
2017-06-02T06:42:32.352Z,84
2017-06-02T06:43:31.993Z,80
2017-06-02T06:44:31.926Z,80
2017-06-02T06:45:31.867Z,80
2017-06-02T06:46:31.805Z,80
2017-06-02T06:47:32.044Z,80
2017-06-02T06:48:31.976Z,88
2017-06-02T06:49:31.915Z,88
2017-06-02T06:50:31.856Z,80
2017-06-02T06:51:31.791Z,84
2017-06-02T06:52:31.726Z,84
2017-06-02T06:53:31.667Z,76
2017-06-02T06:54:31.609Z,84
2017-06-02T06:55:31.545Z,84
2017-06-02T06:56:31.477Z,80
2017-06-02T06:57:31.632Z,84
2017-06-02T06:58:31.348Z,84
2017-06-02T06:59:31.285Z,84
2017-06-02T07:00:31.225Z,80
2017-06-02T07:01:31.171Z,80
2017-06-02T07:02:31.107Z,84
2017-06-02T07:03:31.036Z,88
2017-06-02T07:04:30.972Z,88
2017-06-02T07:05:30.614Z,88
2017-06-02T07:06:30.849Z,88
2017-06-02T07:07:30.792Z,88
2017-06-02T07:08:30.118Z,92
2017-06-02T07:09:30.659Z,92
2017-06-02T07:10:30.594Z,88
2017-06-02T07:11:29.928Z,92
2017-06-02T07:12:30.174Z,92
2017-06-02T07:13:29.806Z,96
2017-06-02T07:14:30.046Z,96
2017-06-02T07:15:30.281Z,96
2017-06-02T07:16:29.931Z,104
2017-06-02T07:17:30.179Z,108
2017-06-02T07:18:30.092Z,112
2017-06-02T07:19:30.045Z,116
2017-06-02T07:20:29.671Z,120
2017-06-02T07:21:30.274Z,120
2017-06-02T07:22:29.846Z,124
2017-06-02T07:23:29.783Z,116
2017-06-02T07:24:29.417Z,112
2017-06-02T07:25:29.667Z,108
2017-06-02T07:26:29.598Z,104
2017-06-02T07:27:29.533Z,116
2017-06-02T07:28:29.592Z,112
2017-06-02T07:29:28.802Z,120
2017-06-02T07:30:29.042Z,128
2017-06-02T07:31:29.281Z,128
2017-06-02T07:32:28.613Z,124
2017-06-02T07:33:29.152Z,124
2017-06-02T07:34:29.091Z,124
2017-06-02T07:35:29.036Z,120
2017-06-02T07:36:28.977Z,116
2017-06-02T07:37:28.640Z,116
2017-06-02T07:38:28.537Z,112
2017-06-02T07:39:28.774Z,108
2017-06-02T07:40:28.438Z,108
2017-06-02T07:41:28.652Z,104
2017-06-02T07:42:28.588Z,104
2017-06-02T07:43:28.531Z,100
2017-06-02T07:44:28.473Z,96
2017-06-02T07:45:28.097Z,100
2017-06-02T07:46:28.340Z,96
2017-06-02T07:47:28.275Z,96
2017-06-02T07:48:28.208Z,96
2017-06-02T07:49:27.844Z,88
2017-06-02T07:50:27.790Z,96
2017-06-02T07:51:28.022Z,96
2017-06-02T07:52:27.654Z,92
2017-06-02T07:53:27.313Z,96
2017-06-02T07:54:27.833Z,92
2017-06-02T07:55:27.774Z,92
2017-06-02T07:56:27.709Z,92
2017-06-02T07:57:27.648Z,92
2017-06-02T07:58:27.585Z,92
2017-06-02T07:59:27.523Z,92
2017-06-02T08:00:27.151Z,80
2017-06-02T08:01:27.094Z,84
2017-06-02T08:02:27.330Z,80
2017-06-02T08:03:27.266Z,80
2017-06-02T08:04:26.300Z,72
2017-06-02T08:05:27.245Z,76
2017-06-02T08:06:27.083Z,76
2017-06-02T08:07:26.721Z,80
2017-06-02T08:08:26.963Z,76
2017-06-02T08:09:26.896Z,76
2017-06-02T08:10:26.984Z,72
2017-06-02T08:11:26.777Z,76
2017-06-02T08:12:26.742Z,76
2017-06-02T08:13:26.338Z,72
2017-06-02T08:14:26.277Z,76
2017-06-02T08:15:26.529Z,72
2017-06-02T08:16:26.156Z,76
2017-06-02T08:17:26.084Z,76
2017-06-02T08:18:26.331Z,76
2017-06-02T08:19:26.266Z,72
2017-06-02T08:20:25.904Z,76
2017-06-02T08:21:26.140Z,72
2017-06-02T08:22:25.771Z,76
2017-06-02T08:23:26.014Z,68
2017-06-02T08:24:25.646Z,72
2017-06-02T08:25:25.583Z,68
2017-06-02T08:26:25.828Z,72
2017-06-02T08:27:25.766Z,72
2017-06-02T08:28:25.701Z,76
2017-06-02T08:29:25.632Z,68
2017-06-02T08:30:25.572Z,72
2017-06-02T08:31:25.242Z,72
2017-06-02T08:32:25.447Z,72
2017-06-02T08:33:25.382Z,72
2017-06-02T08:34:25.321Z,68
2017-06-02T08:35:25.258Z,72
2017-06-02T08:36:24.910Z,68
2017-06-02T08:37:25.135Z,68
2017-06-02T08:38:24.777Z,72
2017-06-02T08:39:24.707Z,68
2017-06-02T08:40:24.945Z,68
2017-06-02T08:41:24.888Z,72
2017-06-02T08:42:24.821Z,72
2017-06-02T08:43:24.459Z,68
2017-06-02T08:44:24.399Z,72
2017-06-02T08:45:24.683Z,72
2017-06-02T08:46:24.570Z,68
2017-06-02T08:47:24.516Z,68
2017-06-02T08:48:24.142Z,68
2017-06-02T08:49:23.778Z,72
2017-06-02T08:50:24.316Z,72
2017-06-02T08:51:24.259Z,72
2017-06-02T08:52:23.887Z,68
2017-06-02T08:53:24.131Z,64
2017-06-02T08:54:24.070Z,72
2017-06-02T08:55:23.704Z,72
2017-06-02T08:56:23.648Z,72
2017-06-02T08:57:23.274Z,72
2017-06-02T08:58:23.814Z,72
2017-06-02T08:59:23.452Z,72
2017-06-02T09:00:23.692Z,72
2017-06-02T09:01:23.326Z,68
2017-06-02T09:02:23.264Z,68
2017-06-02T09:03:23.203Z,76
2017-06-02T09:04:23.137Z,76
2017-06-02T09:05:23.379Z,76
2017-06-02T09:06:23.316Z,80
2017-06-02T09:07:23.274Z,76
2017-06-02T09:08:22.900Z,76
2017-06-02T09:09:23.358Z,76
2017-06-02T09:10:22.758Z,80
2017-06-02T09:11:22.999Z,76
2017-06-02T09:12:22.937Z,80
2017-06-02T09:13:22.875Z,76
2017-06-02T09:14:22.812Z,80
2017-06-02T09:15:22.747Z,80
2017-06-02T09:16:22.685Z,84
2017-06-02T09:17:22.628Z,76
2017-06-02T09:18:22.264Z,80
2017-06-02T09:19:22.198Z,88
2017-06-02T09:20:22.443Z,88
2017-06-02T09:21:22.378Z,92
2017-06-02T09:22:22.311Z,96
2017-06-02T09:23:22.247Z,96
2017-06-02T09:24:22.186Z,96
2017-06-02T09:25:22.125Z,96
2017-06-02T09:26:21.455Z,96
2017-06-02T09:27:21.995Z,100
2017-06-02T09:28:21.936Z,92
2017-06-02T09:29:21.568Z,92
2017-06-02T09:30:21.814Z,92
2017-06-02T09:31:21.446Z,92
2017-06-02T09:32:21.687Z,88
2017-06-02T09:33:21.619Z,92
2017-06-02T09:34:21.261Z,96
2017-06-02T09:35:21.653Z,96
2017-06-02T09:36:21.489Z,96
2017-06-02T09:37:21.376Z,100
2017-06-02T09:38:21.007Z,100
2017-06-02T09:39:21.250Z,100
2017-06-02T09:40:20.882Z,104
2017-06-02T09:41:21.123Z,104
2017-06-02T09:42:21.058Z,104
2017-06-02T09:43:21.020Z,104
2017-06-02T09:44:20.940Z,108
2017-06-02T09:45:20.571Z,108
2017-06-02T09:46:20.809Z,100
2017-06-02T09:47:20.750Z,112
2017-06-02T09:48:20.681Z,112
2017-06-02T09:49:20.625Z,116
2017-06-02T09:50:20.557Z,120
2017-06-02T09:51:20.491Z,124
2017-06-02T09:52:20.431Z,132
2017-06-02T09:53:20.370Z,136
2017-06-02T09:54:20.308Z,136
2017-06-02T09:55:20.254Z,140
2017-06-02T09:56:20.187Z,140
2017-06-02T09:57:19.818Z,140
2017-06-02T09:58:20.055Z,140
2017-06-02T09:59:19.689Z,140
2017-06-02T10:00:19.933Z,144
2017-06-02T10:01:19.863Z,144
2017-06-02T10:02:19.500Z,152
2017-06-02T10:03:19.439Z,156
2017-06-02T10:04:19.372Z,156
2017-06-02T10:05:19.648Z,160
2017-06-02T10:06:19.556Z,160
2017-06-02T10:07:19.692Z,168
2017-06-02T10:08:19.433Z,168
2017-06-02T10:09:19.064Z,168
2017-06-02T10:10:19.000Z,164
2017-06-02T10:11:18.935Z,160
2017-06-02T10:12:18.877Z,160
2017-06-02T10:13:19.112Z,160
2017-06-02T10:14:19.049Z,164
2017-06-02T10:15:19.097Z,168
2017-06-02T10:16:18.627Z,172
2017-06-02T10:17:18.876Z,176
2017-06-02T10:18:18.215Z,176
2017-06-02T10:19:18.449Z,176
2017-06-02T10:20:18.691Z,180
2017-06-02T10:21:18.308Z,184
2017-06-02T10:22:18.556Z,188
2017-06-02T10:23:18.499Z,184
2017-06-02T10:24:18.424Z,180
2017-06-02T10:25:18.360Z,176
2017-06-02T10:26:18.298Z,172
2017-06-02T10:27:18.237Z,168
2017-06-02T10:28:17.931Z,168
2017-06-02T10:29:18.109Z,168
2017-06-02T10:30:18.049Z,172
2017-06-02T10:31:17.990Z,172
2017-06-02T10:32:17.922Z,176
2017-06-02T10:33:17.859Z,180
2017-06-02T10:34:17.800Z,180
2017-06-02T10:35:17.729Z,184
2017-06-02T10:36:17.669Z,180
2017-06-02T10:37:17.613Z,176
2017-06-02T10:38:17.548Z,176
2017-06-02T10:39:17.478Z,172
2017-06-02T10:40:17.418Z,168
2017-06-02T10:41:17.361Z,168
2017-06-02T10:42:17.295Z,168
2017-06-02T10:43:17.226Z,164
2017-06-02T10:44:17.177Z,164
2017-06-02T10:45:16.806Z,160
2017-06-02T10:46:16.742Z,160
2017-06-02T10:47:16.982Z,156
2017-06-02T10:48:16.617Z,152
2017-06-02T10:49:16.864Z,152
2017-06-02T10:50:31.692Z,148
2017-06-02T10:51:16.448Z,152
2017-06-02T10:52:16.369Z,148
2017-06-02T10:53:16.614Z,144
2017-06-02T10:54:16.241Z,140
2017-06-02T10:55:16.485Z,140
2017-06-02T10:56:16.115Z,136
2017-06-02T10:57:16.660Z,136
2017-06-02T10:58:16.318Z,132
2017-06-02T10:59:30.822Z,132
2017-06-02T11:00:16.184Z,124
2017-06-02T11:01:15.806Z,128
2017-06-02T11:02:16.068Z,124
2017-06-02T11:03:15.978Z,128
2017-06-02T11:04:15.914Z,124
2017-06-02T11:05:15.868Z,124
2017-06-02T11:06:15.495Z,120
2017-06-02T11:07:15.156Z,120
2017-06-02T11:08:15.368Z,120
2017-06-02T11:09:15.612Z,116
2017-06-02T11:10:15.545Z,116
2017-06-02T11:11:15.486Z,116
2017-06-02T11:12:15.124Z,108
2017-06-02T11:13:15.364Z,112
2017-06-02T11:14:14.694Z,108
2017-06-02T11:15:15.226Z,108
2017-06-02T11:16:14.884Z,108
2017-06-02T11:17:14.841Z,104
2017-06-02T11:18:14.774Z,100
2017-06-02T11:19:14.725Z,100
2017-06-02T11:20:15.005Z,100
2017-06-02T11:21:14.648Z,100
2017-06-02T11:22:14.231Z,100
2017-06-02T11:23:14.743Z,100
2017-06-02T11:24:14.359Z,96
2017-06-02T11:25:14.010Z,96
2017-06-02T11:26:13.929Z,100
2017-06-02T11:27:14.476Z,96
2017-06-02T11:28:14.404Z,100
2017-06-02T11:29:14.047Z,100
2017-06-02T11:30:13.977Z,96
2017-06-02T11:31:13.913Z,96
2017-06-02T11:32:14.192Z,92
2017-06-02T11:33:13.789Z,96
2017-06-02T11:34:14.031Z,92
2017-06-02T11:35:13.664Z,96
2017-06-02T11:36:13.910Z,96
2017-06-02T11:37:13.850Z,96
2017-06-02T11:38:13.995Z,96
2017-06-02T11:39:13.784Z,92
2017-06-02T11:40:13.048Z,92
2017-06-02T11:41:13.629Z,96
2017-06-02T11:42:13.546Z,92
2017-06-02T11:43:13.461Z,96
2017-06-02T11:44:13.400Z,96
2017-06-02T11:45:13.337Z,96
2017-06-02T11:46:12.971Z,96
2017-06-02T11:47:12.909Z,96
2017-06-02T11:48:13.148Z,92
2017-06-02T11:49:12.784Z,96
2017-06-02T11:50:13.020Z,92
2017-06-02T11:51:12.967Z,92
2017-06-02T11:52:12.305Z,92
2017-06-02T11:53:12.530Z,92
2017-06-02T11:54:12.468Z,92
2017-06-02T11:55:12.714Z,88
2017-06-02T11:56:12.051Z,92
2017-06-02T11:57:12.587Z,92
2017-06-02T11:58:12.222Z,96
2017-06-02T11:59:12.167Z,92
2017-06-02T12:00:12.093Z,92
2017-06-02T12:01:12.355Z,96
2017-06-02T12:02:12.307Z,96
2017-06-02T12:03:12.208Z,96
2017-06-02T12:04:12.145Z,96
2017-06-02T12:05:12.083Z,104
2017-06-02T12:06:12.019Z,104
2017-06-02T12:07:11.955Z,104
2017-06-02T12:08:11.589Z,104
2017-06-02T12:09:11.832Z,104
2017-06-02T12:10:11.495Z,104
2017-06-02T12:11:11.709Z,104
2017-06-02T12:12:11.644Z,104
2017-06-02T12:13:11.585Z,108
2017-06-02T12:14:10.914Z,108
2017-06-02T12:15:11.451Z,104
2017-06-02T12:16:11.393Z,108
2017-06-02T12:17:11.337Z,108
2017-06-02T12:18:11.013Z,108
2017-06-02T12:19:11.214Z,108
2017-06-02T12:20:10.837Z,108
2017-06-02T12:21:10.770Z,112
2017-06-02T12:22:11.014Z,112
2017-06-02T12:23:10.953Z,112
2017-06-02T12:24:10.890Z,116
2017-06-02T12:25:10.555Z,116
2017-06-02T12:26:10.767Z,120
2017-06-02T12:27:10.405Z,116
2017-06-02T12:28:10.058Z,116
2017-06-02T12:29:10.590Z,116
2017-06-02T12:30:10.510Z,120
2017-06-02T12:31:10.146Z,116
2017-06-02T12:32:10.390Z,116
2017-06-02T12:33:10.019Z,116
2017-06-02T12:34:09.959Z,116
2017-06-02T12:35:10.196Z,116
2017-06-02T12:36:10.135Z,116
2017-06-02T12:37:09.771Z,120
2017-06-02T12:38:10.008Z,120
2017-06-02T12:39:09.943Z,124
2017-06-02T12:40:09.583Z,124
2017-06-02T12:41:09.729Z,128
2017-06-02T12:42:09.760Z,128
2017-06-02T12:43:09.700Z,128
2017-06-02T12:44:09.345Z,132
2017-06-02T12:45:09.573Z,132
2017-06-02T12:46:08.904Z,132
2017-06-02T12:47:09.453Z,136
2017-06-02T12:48:09.075Z,136
2017-06-02T12:49:09.319Z,136
2017-06-02T12:50:08.667Z,136
2017-06-02T12:51:08.894Z,136
2017-06-02T12:52:08.827Z,132
2017-06-02T12:53:09.079Z,136
2017-06-02T12:54:08.702Z,132
2017-06-02T12:55:08.940Z,132
2017-06-02T12:56:08.572Z,132
2017-06-02T12:57:08.817Z,132
2017-06-02T12:58:08.502Z,132
2017-06-02T12:59:08.684Z,132
2017-06-02T13:00:08.639Z,132
2017-06-02T13:01:08.573Z,132
2017-06-02T13:02:08.545Z,136
2017-06-02T13:03:08.159Z,132
2017-06-02T13:04:08.377Z,136
2017-06-02T13:05:08.321Z,136
2017-06-02T13:06:07.953Z,136
2017-06-02T13:07:08.185Z,140
2017-06-02T13:08:07.589Z,144
2017-06-02T13:09:07.760Z,144
2017-06-02T13:10:07.403Z,144
2017-06-02T13:11:07.938Z,148
2017-06-02T13:12:07.873Z,148
2017-06-02T13:13:07.804Z,148
2017-06-02T13:14:07.760Z,148
2017-06-02T13:15:07.698Z,148
2017-06-02T13:16:07.623Z,144
2017-06-02T13:17:07.256Z,144
2017-06-02T13:18:07.497Z,144
2017-06-02T13:19:22.033Z,140
2017-06-02T13:20:07.376Z,136
2017-06-02T13:21:06.698Z,144
2017-06-02T13:22:07.246Z,140
2017-06-02T13:23:07.178Z,140
2017-06-02T13:24:06.516Z,140
2017-06-02T13:25:06.750Z,136
2017-06-02T13:26:07.001Z,136
2017-06-02T13:27:06.928Z,132
2017-06-02T13:28:06.860Z,132
2017-06-02T13:29:06.880Z,128
2017-06-02T13:30:07.001Z,128
2017-06-02T13:31:06.675Z,128
2017-06-02T13:32:06.610Z,124
2017-06-02T13:33:06.271Z,124
2017-06-02T13:34:06.501Z,124
2017-06-02T13:36:06.570Z,120
2017-06-02T13:37:06.304Z,120
2017-06-02T13:38:06.236Z,120
2017-06-02T13:39:06.172Z,120
2017-06-02T13:40:05.808Z,116
2017-06-02T13:41:05.463Z,112
2017-06-02T13:42:06.021Z,116
2017-06-02T13:43:05.920Z,116
2017-06-02T13:44:05.861Z,116
2017-06-02T13:45:06.135Z,116
2017-06-02T13:46:05.748Z,112
2017-06-02T13:47:05.678Z,112
2017-06-02T13:48:05.367Z,112
2017-06-02T13:49:05.243Z,112
2017-06-02T13:50:05.182Z,112
2017-06-02T13:51:05.441Z,108
2017-06-02T13:52:05.373Z,108
2017-06-02T13:53:05.289Z,108
2017-06-02T13:54:05.229Z,112
2017-06-02T13:55:05.169Z,112
2017-06-02T13:56:05.107Z,108
2017-06-02T13:57:05.058Z,108
2017-06-02T13:58:04.986Z,108
2017-06-02T13:59:04.921Z,104
2017-06-02T14:00:04.854Z,100
2017-06-02T14:01:04.787Z,100
2017-06-02T14:02:04.425Z,100
2017-06-02T14:03:04.663Z,96
2017-06-02T14:04:04.602Z,92
2017-06-02T14:05:04.547Z,92
2017-06-02T14:06:04.482Z,92
2017-06-02T14:07:04.415Z,92
2017-06-02T14:08:04.044Z,96
2017-06-02T14:09:04.292Z,92
2017-06-02T14:10:03.932Z,92
2017-06-02T14:11:03.857Z,88
2017-06-02T14:12:04.099Z,84
2017-06-02T14:13:04.040Z,84
2017-06-02T14:14:03.666Z,84
2017-06-02T14:15:03.918Z,80